sensor_id;sensor_type;location;lat;lon;timestamp;P1;durP1;ratioP1;P2;durP2;ratioP2
52186;SDS011;38161;53.020;6.598;2022-12-07T00:01:35;8.48;;;1.90;;
52186;SDS011;38161;53.020;6.598;2022-12-07T00:04:03;6.03;;;1.45;;
52186;SDS011;38161;53.020;6.598;2022-12-07T00:06:34;8.82;;;1.88;;
52186;SDS011;38161;53.020;6.598;2022-12-07T00:09:02;7.55;;;2.00;;
52186;SDS011;38161;53.020;6.598;2022-12-07T00:11:31;6.70;;;1.65;;
52186;SDS011;38161;53.020;6.598;2022-12-07T00:13:58;11.60;;;2.38;;
52186;SDS011;38161;53.020;6.598;2022-12-07T00:16:27;10.00;;;1.65;;
52186;SDS011;38161;53.020;6.598;2022-12-07T00:18:55;6.93;;;1.50;;
52186;SDS011;38161;53.020;6.598;2022-12-07T00:21:22;8.30;;;1.60;;
52186;SDS011;38161;53.020;6.598;2022-12-07T00:23:51;10.18;;;2.22;;
52186;SDS011;38161;53.020;6.598;2022-12-07T00:26:19;9.20;;;1.90;;
52186;SDS011;38161;53.020;6.598;2022-12-07T00:28:53;7.07;;;1.95;;
52186;SDS011;38161;53.020;6.598;2022-12-07T00:31:22;11.23;;;1.73;;
52186;SDS011;38161;53.020;6.598;2022-12-07T00:33:49;7.55;;;1.73;;
52186;SDS011;38161;53.020;6.598;2022-12-07T00:36:17;11.75;;;2.25;;
52186;SDS011;38161;53.020;6.598;2022-12-07T00:38:44;7.65;;;1.88;;
52186;SDS011;38161;53.020;6.598;2022-12-07T00:41:11;12.48;;;2.17;;
52186;SDS011;38161;53.020;6.598;2022-12-07T00:43:38;8.10;;;1.92;;
52186;SDS011;38161;53.020;6.598;2022-12-07T00:48:31;8.05;;;1.70;;
52186;SDS011;38161;53.020;6.598;2022-12-07T00:50:57;11.13;;;1.80;;
52186;SDS011;38161;53.020;6.598;2022-12-07T00:53:23;13.15;;;1.95;;
52186;SDS011;38161;53.020;6.598;2022-12-07T00:55:50;9.95;;;1.80;;
52186;SDS011;38161;53.020;6.598;2022-12-07T00:58:15;6.32;;;1.70;;
52186;SDS011;38161;53.020;6.598;2022-12-07T01:00:42;12.97;;;1.67;;
52186;SDS011;38161;53.020;6.598;2022-12-07T01:03:09;6.03;;;1.92;;
52186;SDS011;38161;53.020;6.598;2022-12-07T01:05:38;8.18;;;1.77;;
52186;SDS011;38161;53.020;6.598;2022-12-07T01:08:04;11.75;;;2.47;;
52186;SDS011;38161;53.020;6.598;2022-12-07T01:10:30;6.90;;;1.48;;
52186;SDS011;38161;53.020;6.598;2022-12-07T01:12:56;8.20;;;1.55;;
52186;SDS011;38161;53.020;6.598;2022-12-07T01:15:23;12.23;;;2.13;;
52186;SDS011;38161;53.020;6.598;2022-12-07T01:17:49;7.15;;;1.45;;
52186;SDS011;38161;53.020;6.598;2022-12-07T01:20:15;9.70;;;1.93;;
52186;SDS011;38161;53.020;6.598;2022-12-07T01:22:41;5.78;;;1.45;;
52186;SDS011;38161;53.020;6.598;2022-12-07T01:25:09;6.13;;;1.50;;
52186;SDS011;38161;53.020;6.598;2022-12-07T01:27:36;5.47;;;1.30;;
52186;SDS011;38161;53.020;6.598;2022-12-07T01:30:03;5.70;;;1.10;;
52186;SDS011;38161;53.020;6.598;2022-12-07T01:32:30;8.35;;;1.10;;
52186;SDS011;38161;53.020;6.598;2022-12-07T01:34:56;9.23;;;1.50;;
52186;SDS011;38161;53.020;6.598;2022-12-07T01:37:21;9.80;;;1.30;;
52186;SDS011;38161;53.020;6.598;2022-12-07T01:39:50;6.20;;;1.47;;
52186;SDS011;38161;53.020;6.598;2022-12-07T01:42:17;8.82;;;1.10;;
52186;SDS011;38161;53.020;6.598;2022-12-07T01:47:49;4.63;;;0.98;;
52186;SDS011;38161;53.020;6.598;2022-12-07T01:50:18;8.02;;;1.05;;
52186;SDS011;38161;53.020;6.598;2022-12-07T01:52:45;10.23;;;1.45;;
52186;SDS011;38161;53.020;6.598;2022-12-07T01:55:16;8.55;;;1.20;;
52186;SDS011;38161;53.020;6.598;2022-12-07T01:57:43;7.55;;;1.20;;
52186;SDS011;38161;53.020;6.598;2022-12-07T02:00:13;8.25;;;1.15;;
52186;SDS011;38161;53.020;6.598;2022-12-07T02:02:46;4.22;;;0.98;;
52186;SDS011;38161;53.020;6.598;2022-12-07T02:05:18;5.82;;;0.82;;
52186;SDS011;38161;53.020;6.598;2022-12-07T02:07:44;5.03;;;1.23;;
52186;SDS011;38161;53.020;6.598;2022-12-07T02:13:10;4.10;;;1.30;;
52186;SDS011;38161;53.020;6.598;2022-12-07T02:30:08;5.22;;;1.00;;
52186;SDS011;38161;53.020;6.598;2022-12-07T02:32:42;4.90;;;1.20;;
52186;SDS011;38161;53.020;6.598;2022-12-07T02:38:14;8.00;;;1.10;;
52186;SDS011;38161;53.020;6.598;2022-12-07T02:43:59;7.90;;;1.25;;
52186;SDS011;38161;53.020;6.598;2022-12-07T02:46:30;11.47;;;1.83;;
52186;SDS011;38161;53.020;6.598;2022-12-07T02:49:08;9.13;;;1.10;;
52186;SDS011;38161;53.020;6.598;2022-12-07T02:51:38;7.32;;;1.08;;
52186;SDS011;38161;53.020;6.598;2022-12-07T02:54:12;8.18;;;1.10;;
52186;SDS011;38161;53.020;6.598;2022-12-07T03:13:34;6.80;;;1.05;;
52186;SDS011;38161;53.020;6.598;2022-12-07T03:15:52;6.13;;;1.00;;
52186;SDS011;38161;53.020;6.598;2022-12-07T03:18:33;6.47;;;1.17;;
52186;SDS011;38161;53.020;6.598;2022-12-07T03:21:05;3.70;;;0.70;;
52186;SDS011;38161;53.020;6.598;2022-12-07T03:23:35;7.03;;;1.00;;
52186;SDS011;38161;53.020;6.598;2022-12-07T03:26:03;6.57;;;1.02;;
52186;SDS011;38161;53.020;6.598;2022-12-07T03:28:36;9.75;;;1.23;;
52186;SDS011;38161;53.020;6.598;2022-12-07T03:31:15;7.25;;;1.17;;
52186;SDS011;38161;53.020;6.598;2022-12-07T03:39:04;9.13;;;1.55;;
52186;SDS011;38161;53.020;6.598;2022-12-07T03:41:49;8.27;;;1.10;;
52186;SDS011;38161;53.020;6.598;2022-12-07T03:44:16;9.18;;;1.25;;
52186;SDS011;38161;53.020;6.598;2022-12-07T03:55:17;3.83;;;0.95;;
52186;SDS011;38161;53.020;6.598;2022-12-07T03:57:52;4.10;;;0.70;;
52186;SDS011;38161;53.020;6.598;2022-12-07T04:00:21;8.50;;;1.42;;
52186;SDS011;38161;53.020;6.598;2022-12-07T04:02:47;5.25;;;0.85;;
52186;SDS011;38161;53.020;6.598;2022-12-07T04:05:16;7.55;;;1.00;;
52186;SDS011;38161;53.020;6.598;2022-12-07T04:07:41;6.87;;;0.90;;
52186;SDS011;38161;53.020;6.598;2022-12-07T04:10:07;7.43;;;1.20;;
52186;SDS011;38161;53.020;6.598;2022-12-07T04:12:33;5.70;;;1.05;;
52186;SDS011;38161;53.020;6.598;2022-12-07T04:14:59;4.37;;;0.80;;
52186;SDS011;38161;53.020;6.598;2022-12-07T04:17:24;7.07;;;1.00;;
52186;SDS011;38161;53.020;6.598;2022-12-07T04:19:50;7.83;;;1.10;;
52186;SDS011;38161;53.020;6.598;2022-12-07T04:22:16;7.77;;;1.10;;
52186;SDS011;38161;53.020;6.598;2022-12-07T04:24:41;4.70;;;0.93;;
52186;SDS011;38161;53.020;6.598;2022-12-07T04:27:07;3.43;;;0.90;;
52186;SDS011;38161;53.020;6.598;2022-12-07T04:29:33;13.53;;;1.83;;
52186;SDS011;38161;53.020;6.598;2022-12-07T04:31:58;10.07;;;1.10;;
52186;SDS011;38161;53.020;6.598;2022-12-07T04:34:24;5.67;;;0.90;;
52186;SDS011;38161;53.020;6.598;2022-12-07T04:36:50;13.77;;;1.47;;
52186;SDS011;38161;53.020;6.598;2022-12-07T04:41:52;6.60;;;0.85;;
52186;SDS011;38161;53.020;6.598;2022-12-07T04:44:18;6.63;;;0.80;;
52186;SDS011;38161;53.020;6.598;2022-12-07T04:49:11;5.00;;;0.77;;
52186;SDS011;38161;53.020;6.598;2022-12-07T04:51:38;3.80;;;0.80;;
52186;SDS011;38161;53.020;6.598;2022-12-07T04:54:04;3.90;;;0.80;;
52186;SDS011;38161;53.020;6.598;2022-12-07T04:56:30;3.58;;;0.65;;
52186;SDS011;38161;53.020;6.598;2022-12-07T04:58:56;6.10;;;0.88;;
52186;SDS011;38161;53.020;6.598;2022-12-07T05:01:22;5.73;;;0.93;;
52186;SDS011;38161;53.020;6.598;2022-12-07T05:03:48;6.65;;;0.93;;
52186;SDS011;38161;53.020;6.598;2022-12-07T05:06:15;14.65;;;1.58;;
52186;SDS011;38161;53.020;6.598;2022-12-07T05:08:40;12.73;;;1.20;;
52186;SDS011;38161;53.020;6.598;2022-12-07T05:11:07;9.70;;;1.30;;
52186;SDS011;38161;53.020;6.598;2022-12-07T05:13:33;9.38;;;1.17;;
52186;SDS011;38161;53.020;6.598;2022-12-07T05:15:59;11.27;;;1.65;;
52186;SDS011;38161;53.020;6.598;2022-12-07T05:18:25;7.17;;;1.03;;
52186;SDS011;38161;53.020;6.598;2022-12-07T05:20:51;8.07;;;0.93;;
52186;SDS011;38161;53.020;6.598;2022-12-07T05:23:17;6.85;;;0.85;;
52186;SDS011;38161;53.020;6.598;2022-12-07T05:25:43;6.65;;;1.08;;
52186;SDS011;38161;53.020;6.598;2022-12-07T05:28:09;3.85;;;0.95;;
52186;SDS011;38161;53.020;6.598;2022-12-07T05:30:35;9.27;;;0.98;;
52186;SDS011;38161;53.020;6.598;2022-12-07T05:33:00;5.37;;;0.67;;
52186;SDS011;38161;53.020;6.598;2022-12-07T05:35:27;4.57;;;0.95;;
52186;SDS011;38161;53.020;6.598;2022-12-07T05:37:53;6.35;;;1.30;;
52186;SDS011;38161;53.020;6.598;2022-12-07T05:40:20;4.78;;;0.82;;
52186;SDS011;38161;53.020;6.598;2022-12-07T05:42:45;9.83;;;1.23;;
52186;SDS011;38161;53.020;6.598;2022-12-07T05:45:11;15.10;;;1.70;;
52186;SDS011;38161;53.020;6.598;2022-12-07T05:47:37;4.50;;;0.70;;
52186;SDS011;38161;53.020;6.598;2022-12-07T05:50:03;5.47;;;1.10;;
52186;SDS011;38161;53.020;6.598;2022-12-07T05:52:30;5.18;;;0.73;;
52186;SDS011;38161;53.020;6.598;2022-12-07T05:54:56;17.97;;;1.17;;
52186;SDS011;38161;53.020;6.598;2022-12-07T05:57:22;8.03;;;1.13;;
52186;SDS011;38161;53.020;6.598;2022-12-07T05:59:47;6.17;;;1.00;;
52186;SDS011;38161;53.020;6.598;2022-12-07T06:02:14;9.77;;;1.23;;
52186;SDS011;38161;53.020;6.598;2022-12-07T06:04:44;9.80;;;1.50;;
52186;SDS011;38161;53.020;6.598;2022-12-07T06:07:11;6.50;;;1.15;;
52186;SDS011;38161;53.020;6.598;2022-12-07T06:09:39;7.85;;;1.30;;
52186;SDS011;38161;53.020;6.598;2022-12-07T06:12:05;7.70;;;1.33;;
52186;SDS011;38161;53.020;6.598;2022-12-07T06:14:50;7.20;;;1.07;;
52186;SDS011;38161;53.020;6.598;2022-12-07T06:17:16;9.88;;;1.60;;
52186;SDS011;38161;53.020;6.598;2022-12-07T06:19:42;7.22;;;1.23;;
52186;SDS011;38161;53.020;6.598;2022-12-07T06:22:08;3.17;;;1.10;;
52186;SDS011;38161;53.020;6.598;2022-12-07T06:24:35;11.57;;;1.67;;
52186;SDS011;38161;53.020;6.598;2022-12-07T06:27:01;15.15;;;1.60;;
52186;SDS011;38161;53.020;6.598;2022-12-07T06:29:27;10.97;;;1.07;;
52186;SDS011;38161;53.020;6.598;2022-12-07T06:31:52;8.37;;;1.00;;
52186;SDS011;38161;53.020;6.598;2022-12-07T06:34:19;5.43;;;1.10;;
52186;SDS011;38161;53.020;6.598;2022-12-07T06:36:48;10.40;;;1.30;;
52186;SDS011;38161;53.020;6.598;2022-12-07T06:39:17;7.65;;;1.15;;
52186;SDS011;38161;53.020;6.598;2022-12-07T06:41:43;5.75;;;1.30;;
52186;SDS011;38161;53.020;6.598;2022-12-07T06:44:09;7.80;;;1.00;;
52186;SDS011;38161;53.020;6.598;2022-12-07T06:46:35;11.23;;;1.30;;
52186;SDS011;38161;53.020;6.598;2022-12-07T06:49:01;10.07;;;1.23;;
52186;SDS011;38161;53.020;6.598;2022-12-07T06:51:27;4.70;;;0.80;;
52186;SDS011;38161;53.020;6.598;2022-12-07T06:53:53;12.23;;;1.40;;
52186;SDS011;38161;53.020;6.598;2022-12-07T06:56:19;15.00;;;1.80;;
52186;SDS011;38161;53.020;6.598;2022-12-07T06:58:44;9.98;;;1.67;;
52186;SDS011;38161;53.020;6.598;2022-12-07T07:01:10;13.03;;;1.87;;
52186;SDS011;38161;53.020;6.598;2022-12-07T07:03:37;8.07;;;1.27;;
52186;SDS011;38161;53.020;6.598;2022-12-07T07:06:03;9.57;;;1.40;;
52186;SDS011;38161;53.020;6.598;2022-12-07T07:08:29;8.57;;;1.10;;
52186;SDS011;38161;53.020;6.598;2022-12-07T07:10:55;7.38;;;1.30;;
52186;SDS011;38161;53.020;6.598;2022-12-07T07:13:21;6.77;;;1.30;;
52186;SDS011;38161;53.020;6.598;2022-12-07T07:15:47;9.23;;;1.23;;
52186;SDS011;38161;53.020;6.598;2022-12-07T07:18:12;9.20;;;1.40;;
52186;SDS011;38161;53.020;6.598;2022-12-07T07:20:38;5.73;;;1.07;;
52186;SDS011;38161;53.020;6.598;2022-12-07T07:23:04;7.07;;;1.20;;
52186;SDS011;38161;53.020;6.598;2022-12-07T07:25:31;6.82;;;1.30;;
52186;SDS011;38161;53.020;6.598;2022-12-07T07:30:22;5.45;;;1.20;;
52186;SDS011;38161;53.020;6.598;2022-12-07T07:32:48;6.68;;;1.23;;
52186;SDS011;38161;53.020;6.598;2022-12-07T07:35:14;6.55;;;0.90;;
52186;SDS011;38161;53.020;6.598;2022-12-07T07:37:40;6.43;;;1.10;;
52186;SDS011;38161;53.020;6.598;2022-12-07T07:40:07;3.05;;;1.00;;
52186;SDS011;38161;53.020;6.598;2022-12-07T07:42:33;5.70;;;1.13;;
52186;SDS011;38161;53.020;6.598;2022-12-07T07:44:59;7.73;;;1.10;;
52186;SDS011;38161;53.020;6.598;2022-12-07T07:47:25;5.30;;;1.40;;
52186;SDS011;38161;53.020;6.598;2022-12-07T07:49:50;4.27;;;0.90;;
52186;SDS011;38161;53.020;6.598;2022-12-07T07:52:16;7.03;;;1.20;;
52186;SDS011;38161;53.020;6.598;2022-12-07T07:54:42;6.17;;;1.17;;
52186;SDS011;38161;53.020;6.598;2022-12-07T07:57:07;7.97;;;1.13;;
52186;SDS011;38161;53.020;6.598;2022-12-07T07:59:33;13.00;;;1.53;;
52186;SDS011;38161;53.020;6.598;2022-12-07T08:01:59;6.37;;;1.50;;
52186;SDS011;38161;53.020;6.598;2022-12-07T08:04:24;6.73;;;1.33;;
52186;SDS011;38161;53.020;6.598;2022-12-07T08:06:51;7.72;;;1.42;;
52186;SDS011;38161;53.020;6.598;2022-12-07T08:09:17;5.40;;;1.27;;
52186;SDS011;38161;53.020;6.598;2022-12-07T08:11:42;6.10;;;1.30;;
52186;SDS011;38161;53.020;6.598;2022-12-07T08:14:09;3.87;;;1.23;;
52186;SDS011;38161;53.020;6.598;2022-12-07T08:16:35;7.00;;;1.67;;
52186;SDS011;38161;53.020;6.598;2022-12-07T08:19:04;7.07;;;1.50;;
52186;SDS011;38161;53.020;6.598;2022-12-07T08:21:30;7.32;;;1.42;;
52186;SDS011;38161;53.020;6.598;2022-12-07T08:23:56;6.40;;;1.53;;
52186;SDS011;38161;53.020;6.598;2022-12-07T08:26:22;8.00;;;1.95;;
52186;SDS011;38161;53.020;6.598;2022-12-07T08:28:48;8.23;;;1.43;;
52186;SDS011;38161;53.020;6.598;2022-12-07T08:31:15;7.50;;;1.60;;
52186;SDS011;38161;53.020;6.598;2022-12-07T08:33:42;9.07;;;1.40;;
52186;SDS011;38161;53.020;6.598;2022-12-07T08:36:10;9.07;;;1.60;;
52186;SDS011;38161;53.020;6.598;2022-12-07T08:38:38;8.00;;;1.50;;
52186;SDS011;38161;53.020;6.598;2022-12-07T08:41:05;5.13;;;1.42;;
52186;SDS011;38161;53.020;6.598;2022-12-07T08:48:41;7.63;;;1.38;;
52186;SDS011;38161;53.020;6.598;2022-12-07T08:51:18;7.35;;;1.48;;
52186;SDS011;38161;53.020;6.598;2022-12-07T08:53:46;11.45;;;1.95;;
52186;SDS011;38161;53.020;6.598;2022-12-07T08:56:12;7.18;;;1.40;;
52186;SDS011;38161;53.020;6.598;2022-12-07T08:58:38;6.80;;;1.35;;
52186;SDS011;38161;53.020;6.598;2022-12-07T09:01:04;6.88;;;1.70;;
52186;SDS011;38161;53.020;6.598;2022-12-07T09:03:30;6.97;;;1.80;;
52186;SDS011;38161;53.020;6.598;2022-12-07T09:05:57;6.57;;;1.35;;
52186;SDS011;38161;53.020;6.598;2022-12-07T09:08:25;7.00;;;1.85;;
52186;SDS011;38161;53.020;6.598;2022-12-07T09:10:56;8.23;;;1.60;;
52186;SDS011;38161;53.020;6.598;2022-12-07T09:13:22;8.33;;;1.67;;
52186;SDS011;38161;53.020;6.598;2022-12-07T09:15:47;9.27;;;1.50;;
52186;SDS011;38161;53.020;6.598;2022-12-07T09:18:13;11.30;;;1.48;;
52186;SDS011;38161;53.020;6.598;2022-12-07T09:20:39;9.30;;;1.57;;
52186;SDS011;38161;53.020;6.598;2022-12-07T09:23:05;8.97;;;1.73;;
52186;SDS011;38161;53.020;6.598;2022-12-07T09:27:58;8.98;;;1.52;;
52186;SDS011;38161;53.020;6.598;2022-12-07T09:30:24;13.95;;;1.48;;
52186;SDS011;38161;53.020;6.598;2022-12-07T09:32:52;10.68;;;2.03;;
52186;SDS011;38161;53.020;6.598;2022-12-07T09:35:19;8.38;;;2.20;;
52186;SDS011;38161;53.020;6.598;2022-12-07T09:37:45;8.65;;;1.98;;
52186;SDS011;38161;53.020;6.598;2022-12-07T09:40:11;9.55;;;2.00;;
52186;SDS011;38161;53.020;6.598;2022-12-07T09:45:05;13.98;;;2.35;;
52186;SDS011;38161;53.020;6.598;2022-12-07T09:47:37;10.27;;;1.60;;
52186;SDS011;38161;53.020;6.598;2022-12-07T09:50:15;6.23;;;2.00;;
52186;SDS011;38161;53.020;6.598;2022-12-07T09:52:44;5.90;;;1.63;;
52186;SDS011;38161;53.020;6.598;2022-12-07T09:55:13;7.80;;;2.20;;
52186;SDS011;38161;53.020;6.598;2022-12-07T09:57:41;9.18;;;1.63;;
52186;SDS011;38161;53.020;6.598;2022-12-07T10:00:16;8.57;;;1.73;;
52186;SDS011;38161;53.020;6.598;2022-12-07T10:02:46;7.28;;;1.65;;
52186;SDS011;38161;53.020;6.598;2022-12-07T10:05:16;10.23;;;1.50;;
52186;SDS011;38161;53.020;6.598;2022-12-07T10:07:45;12.52;;;1.80;;
52186;SDS011;38161;53.020;6.598;2022-12-07T10:10:15;5.50;;;1.40;;
52186;SDS011;38161;53.020;6.598;2022-12-07T10:15:36;9.70;;;1.90;;
52186;SDS011;38161;53.020;6.598;2022-12-07T10:18:41;6.43;;;1.45;;
52186;SDS011;38161;53.020;6.598;2022-12-07T10:23:36;11.38;;;1.20;;
52186;SDS011;38161;53.020;6.598;2022-12-07T10:26:21;9.15;;;1.60;;
52186;SDS011;38161;53.020;6.598;2022-12-07T10:28:56;7.53;;;1.58;;
52186;SDS011;38161;53.020;6.598;2022-12-07T10:31:25;7.30;;;1.60;;
52186;SDS011;38161;53.020;6.598;2022-12-07T10:33:55;9.77;;;1.38;;
52186;SDS011;38161;53.020;6.598;2022-12-07T10:39:04;8.05;;;1.75;;
52186;SDS011;38161;53.020;6.598;2022-12-07T10:41:54;6.32;;;1.58;;
52186;SDS011;38161;53.020;6.598;2022-12-07T10:44:30;10.52;;;1.77;;
52186;SDS011;38161;53.020;6.598;2022-12-07T10:52:35;9.57;;;2.30;;
52186;SDS011;38161;53.020;6.598;2022-12-07T11:00:35;13.48;;;2.42;;
52186;SDS011;38161;53.020;6.598;2022-12-07T11:03:45;11.93;;;2.30;;
52186;SDS011;38161;53.020;6.598;2022-12-07T11:06:27;10.13;;;1.98;;
52186;SDS011;38161;53.020;6.598;2022-12-07T11:17:45;12.13;;;2.20;;
52186;SDS011;38161;53.020;6.598;2022-12-07T11:29:09;10.18;;;1.90;;
52186;SDS011;38161;53.020;6.598;2022-12-07T11:37:07;10.52;;;1.80;;
52186;SDS011;38161;53.020;6.598;2022-12-07T11:39:54;7.43;;;1.02;;
52186;SDS011;38161;53.020;6.598;2022-12-07T11:47:38;1.25;;;0.55;;
52186;SDS011;38161;53.020;6.598;2022-12-07T11:53:01;2.40;;;0.60;;
52186;SDS011;38161;53.020;6.598;2022-12-07T11:55:52;2.10;;;0.70;;
52186;SDS011;38161;53.020;6.598;2022-12-07T12:01:15;3.17;;;0.77;;
52186;SDS011;38161;53.020;6.598;2022-12-07T12:04:43;4.60;;;0.85;;
52186;SDS011;38161;53.020;6.598;2022-12-07T12:07:10;6.53;;;0.80;;
52186;SDS011;38161;53.020;6.598;2022-12-07T12:09:56;7.28;;;1.50;;
52186;SDS011;38161;53.020;6.598;2022-12-07T12:21:11;11.80;;;2.20;;
52186;SDS011;38161;53.020;6.598;2022-12-07T12:23:44;7.03;;;1.48;;
52186;SDS011;38161;53.020;6.598;2022-12-07T12:26:19;3.47;;;1.30;;
52186;SDS011;38161;53.020;6.598;2022-12-07T12:31:14;6.77;;;1.30;;
52186;SDS011;38161;53.020;6.598;2022-12-07T12:34:00;8.27;;;1.30;;
52186;SDS011;38161;53.020;6.598;2022-12-07T12:36:43;9.40;;;1.52;;
52186;SDS011;38161;53.020;6.598;2022-12-07T12:39:19;5.97;;;1.40;;
52186;SDS011;38161;53.020;6.598;2022-12-07T12:46:53;12.80;;;1.60;;
52186;SDS011;38161;53.020;6.598;2022-12-07T12:51:51;13.83;;;2.47;;
52186;SDS011;38161;53.020;6.598;2022-12-07T12:54:31;5.13;;;1.60;;
52186;SDS011;38161;53.020;6.598;2022-12-07T13:04:54;1.45;;;0.60;;
52186;SDS011;38161;53.020;6.598;2022-12-07T13:16:35;7.65;;;2.60;;
52186;SDS011;38161;53.020;6.598;2022-12-07T13:26:22;3.55;;;0.90;;
52186;SDS011;38161;53.020;6.598;2022-12-07T13:34:03;3.95;;;1.23;;
52186;SDS011;38161;53.020;6.598;2022-12-07T13:36:34;3.72;;;1.20;;
52186;SDS011;38161;53.020;6.598;2022-12-07T13:39:23;4.78;;;1.63;;
52186;SDS011;38161;53.020;6.598;2022-12-07T13:41:52;4.03;;;1.87;;
52186;SDS011;38161;53.020;6.598;2022-12-07T13:44:27;3.15;;;0.80;;
52186;SDS011;38161;53.020;6.598;2022-12-07T13:52:16;2.08;;;0.55;;
52186;SDS011;38161;53.020;6.598;2022-12-07T13:57:31;1.48;;;0.70;;
52186;SDS011;38161;53.020;6.598;2022-12-07T14:00:00;3.10;;;0.88;;
52186;SDS011;38161;53.020;6.598;2022-12-07T14:02:34;3.67;;;0.90;;
52186;SDS011;38161;53.020;6.598;2022-12-07T14:05:10;3.33;;;0.50;;
52186;SDS011;38161;53.020;6.598;2022-12-07T14:10:27;3.53;;;0.70;;
52186;SDS011;38161;53.020;6.598;2022-12-07T14:12:54;2.97;;;0.73;;
52186;SDS011;38161;53.020;6.598;2022-12-07T14:17:51;2.85;;;0.70;;
52186;SDS011;38161;53.020;6.598;2022-12-07T14:23:02;7.65;;;1.05;;
52186;SDS011;38161;53.020;6.598;2022-12-07T14:25:47;4.15;;;0.90;;
52186;SDS011;38161;53.020;6.598;2022-12-07T14:28:28;3.92;;;0.90;;
52186;SDS011;38161;53.020;6.598;2022-12-07T14:30:55;5.25;;;0.95;;
52186;SDS011;38161;53.020;6.598;2022-12-07T14:33:21;4.57;;;0.85;;
52186;SDS011;38161;53.020;6.598;2022-12-07T14:35:48;4.13;;;0.90;;
52186;SDS011;38161;53.020;6.598;2022-12-07T14:38:14;4.80;;;1.00;;
52186;SDS011;38161;53.020;6.598;2022-12-07T14:40:40;7.53;;;1.03;;
52186;SDS011;38161;53.020;6.598;2022-12-07T14:43:11;5.78;;;0.90;;
52186;SDS011;38161;53.020;6.598;2022-12-07T14:45:38;2.97;;;0.80;;
52186;SDS011;38161;53.020;6.598;2022-12-07T14:48:05;5.47;;;0.95;;
52186;SDS011;38161;53.020;6.598;2022-12-07T14:50:35;4.70;;;1.13;;
52186;SDS011;38161;53.020;6.598;2022-12-07T14:53:10;8.60;;;1.95;;
52186;SDS011;38161;53.020;6.598;2022-12-07T14:55:40;4.80;;;1.27;;
52186;SDS011;38161;53.020;6.598;2022-12-07T14:58:06;3.65;;;0.98;;
52186;SDS011;38161;53.020;6.598;2022-12-07T15:00:37;5.13;;;1.50;;
52186;SDS011;38161;53.020;6.598;2022-12-07T15:03:03;5.67;;;1.70;;
52186;SDS011;38161;53.020;6.598;2022-12-07T15:05:29;5.60;;;1.37;;
52186;SDS011;38161;53.020;6.598;2022-12-07T15:07:55;6.63;;;1.40;;
52186;SDS011;38161;53.020;6.598;2022-12-07T15:10:22;6.60;;;1.33;;
52186;SDS011;38161;53.020;6.598;2022-12-07T15:12:54;6.40;;;1.25;;
52186;SDS011;38161;53.020;6.598;2022-12-07T15:15:20;4.07;;;0.97;;
52186;SDS011;38161;53.020;6.598;2022-12-07T15:17:45;9.13;;;1.40;;
52186;SDS011;38161;53.020;6.598;2022-12-07T15:20:14;3.53;;;1.43;;
52186;SDS011;38161;53.020;6.598;2022-12-07T15:22:41;2.83;;;1.02;;
52186;SDS011;38161;53.020;6.598;2022-12-07T15:25:08;3.57;;;1.20;;
52186;SDS011;38161;53.020;6.598;2022-12-07T15:27:37;3.45;;;1.00;;
52186;SDS011;38161;53.020;6.598;2022-12-07T15:30:03;4.97;;;1.30;;
52186;SDS011;38161;53.020;6.598;2022-12-07T15:32:29;3.53;;;1.10;;
52186;SDS011;38161;53.020;6.598;2022-12-07T15:34:55;4.00;;;1.10;;
52186;SDS011;38161;53.020;6.598;2022-12-07T15:37:21;2.03;;;0.90;;
52186;SDS011;38161;53.020;6.598;2022-12-07T15:39:46;3.50;;;1.17;;
52186;SDS011;38161;53.020;6.598;2022-12-07T15:42:12;2.53;;;0.90;;
52186;SDS011;38161;53.020;6.598;2022-12-07T15:44:38;5.43;;;1.20;;
52186;SDS011;38161;53.020;6.598;2022-12-07T15:47:22;3.67;;;1.40;;
52186;SDS011;38161;53.020;6.598;2022-12-07T15:49:48;4.33;;;1.37;;
52186;SDS011;38161;53.020;6.598;2022-12-07T15:52:13;4.67;;;1.50;;
52186;SDS011;38161;53.020;6.598;2022-12-07T15:54:40;9.73;;;1.60;;
52186;SDS011;38161;53.020;6.598;2022-12-07T15:57:06;6.13;;;1.30;;
52186;SDS011;38161;53.020;6.598;2022-12-07T15:59:32;4.70;;;1.80;;
52186;SDS011;38161;53.020;6.598;2022-12-07T16:01:58;4.57;;;1.47;;
52186;SDS011;38161;53.020;6.598;2022-12-07T16:04:23;9.03;;;2.20;;
52186;SDS011;38161;53.020;6.598;2022-12-07T16:06:49;8.40;;;2.23;;
52186;SDS011;38161;53.020;6.598;2022-12-07T16:09:15;5.63;;;2.53;;
52186;SDS011;38161;53.020;6.598;2022-12-07T16:11:41;5.13;;;2.15;;
52186;SDS011;38161;53.020;6.598;2022-12-07T16:14:07;9.00;;;2.30;;
52186;SDS011;38161;53.020;6.598;2022-12-07T16:16:33;3.47;;;1.83;;
52186;SDS011;38161;53.020;6.598;2022-12-07T16:18:58;7.57;;;2.00;;
52186;SDS011;38161;53.020;6.598;2022-12-07T16:21:24;6.97;;;1.87;;
52186;SDS011;38161;53.020;6.598;2022-12-07T16:23:50;4.47;;;2.10;;
52186;SDS011;38161;53.020;6.598;2022-12-07T16:26:17;6.20;;;2.07;;
52186;SDS011;38161;53.020;6.598;2022-12-07T16:28:44;6.38;;;2.00;;
52186;SDS011;38161;53.020;6.598;2022-12-07T16:31:12;5.93;;;1.52;;
52186;SDS011;38161;53.020;6.598;2022-12-07T16:33:39;3.88;;;1.60;;
52186;SDS011;38161;53.020;6.598;2022-12-07T16:36:07;4.03;;;1.38;;
52186;SDS011;38161;53.020;6.598;2022-12-07T16:38:34;4.78;;;1.67;;
52186;SDS011;38161;53.020;6.598;2022-12-07T16:43:27;7.00;;;2.05;;
52186;SDS011;38161;53.020;6.598;2022-12-07T16:45:52;5.93;;;1.40;;
52186;SDS011;38161;53.020;6.598;2022-12-07T16:48:18;2.77;;;1.20;;
52186;SDS011;38161;53.020;6.598;2022-12-07T16:50:44;5.47;;;1.40;;
52186;SDS011;38161;53.020;6.598;2022-12-07T16:53:12;4.63;;;1.50;;
52186;SDS011;38161;53.020;6.598;2022-12-07T16:55:38;4.28;;;1.35;;
52186;SDS011;38161;53.020;6.598;2022-12-07T16:58:06;4.28;;;1.35;;
52186;SDS011;38161;53.020;6.598;2022-12-07T17:00:32;8.07;;;1.70;;
52186;SDS011;38161;53.020;6.598;2022-12-07T17:02:58;4.32;;;1.75;;
52186;SDS011;38161;53.020;6.598;2022-12-07T17:05:24;5.53;;;1.83;;
52186;SDS011;38161;53.020;6.598;2022-12-07T17:07:51;2.95;;;1.63;;
52186;SDS011;38161;53.020;6.598;2022-12-07T17:10:17;4.73;;;1.50;;
52186;SDS011;38161;53.020;6.598;2022-12-07T17:12:43;4.27;;;1.50;;
52186;SDS011;38161;53.020;6.598;2022-12-07T17:15:09;5.07;;;1.10;;
52186;SDS011;38161;53.020;6.598;2022-12-07T17:17:52;4.80;;;1.30;;
52186;SDS011;38161;53.020;6.598;2022-12-07T17:20:20;2.92;;;1.05;;
52186;SDS011;38161;53.020;6.598;2022-12-07T17:22:47;2.88;;;0.95;;
52186;SDS011;38161;53.020;6.598;2022-12-07T17:25:14;4.85;;;1.92;;
52186;SDS011;38161;53.020;6.598;2022-12-07T17:27:41;3.60;;;1.45;;
52186;SDS011;38161;53.020;6.598;2022-12-07T17:30:07;4.47;;;1.60;;
52186;SDS011;38161;53.020;6.598;2022-12-07T17:32:33;9.60;;;1.80;;
52186;SDS011;38161;53.020;6.598;2022-12-07T17:34:59;5.50;;;1.27;;
52186;SDS011;38161;53.020;6.598;2022-12-07T17:37:25;2.97;;;1.40;;
52186;SDS011;38161;53.020;6.598;2022-12-07T17:39:52;3.88;;;1.58;;
52186;SDS011;38161;53.020;6.598;2022-12-07T17:42:22;3.50;;;1.40;;
52186;SDS011;38161;53.020;6.598;2022-12-07T17:45:01;7.75;;;1.25;;
52186;SDS011;38161;53.020;6.598;2022-12-07T17:47:30;6.82;;;1.45;;
52186;SDS011;38161;53.020;6.598;2022-12-07T17:49:56;2.57;;;1.23;;
52186;SDS011;38161;53.020;6.598;2022-12-07T17:52:21;6.00;;;1.73;;
52186;SDS011;38161;53.020;6.598;2022-12-07T17:55:06;4.72;;;1.35;;
52186;SDS011;38161;53.020;6.598;2022-12-07T17:57:32;4.38;;;1.75;;
52186;SDS011;38161;53.020;6.598;2022-12-07T17:59:58;12.03;;;2.83;;
52186;SDS011;38161;53.020;6.598;2022-12-07T18:02:23;4.07;;;1.90;;
52186;SDS011;38161;53.020;6.598;2022-12-07T18:04:49;6.00;;;2.00;;
52186;SDS011;38161;53.020;6.598;2022-12-07T18:07:15;6.80;;;2.10;;
52186;SDS011;38161;53.020;6.598;2022-12-07T18:09:41;4.15;;;1.77;;
52186;SDS011;38161;53.020;6.598;2022-12-07T18:12:07;3.90;;;2.00;;